createdAt,value
2022-08-22T00:00:13.447Z,4.80
2022-08-22T00:02:58.609Z,4.55
2022-08-22T00:03:02.259Z,4.00
2022-08-22T00:03:02.939Z,4.00
2022-08-22T00:03:07.176Z,4.40
2022-08-22T00:03:46.543Z,5.20
2022-08-22T00:07:16.137Z,5.65
2022-08-22T00:10:55.778Z,4.97
2022-08-22T00:14:23.765Z,4.80
2022-08-22T00:17:53.561Z,4.50
2022-08-22T00:21:21.455Z,5.47
2022-08-22T00:24:49.895Z,5.00
2022-08-22T00:31:41.151Z,4.90
2022-08-22T00:35:09.124Z,5.03
2022-08-22T00:38:37.765Z,5.07
2022-08-22T00:42:32.130Z,4.82
2022-08-22T00:46:23.621Z,4.35
2022-08-22T00:50:26.357Z,5.07
2022-08-22T00:53:54.439Z,5.53
2022-08-22T00:57:32.745Z,4.63
2022-08-22T01:00:59.591Z,5.68
2022-08-22T01:04:33.987Z,5.03
2022-08-22T01:08:16.576Z,5.35
2022-08-22T01:12:01.718Z,5.30
2022-08-22T01:15:28.887Z,4.70
2022-08-22T01:19:17.557Z,4.75
2022-08-22T01:23:27.768Z,5.32
2022-08-22T01:27:18.641Z,4.68
2022-08-22T01:30:59.229Z,4.95
2022-08-22T01:34:59.799Z,5.50
2022-08-22T01:38:43.421Z,4.50
2022-08-22T01:42:50.631Z,4.68
2022-08-22T01:46:26.079Z,5.60
2022-08-22T01:49:55.622Z,5.32
2022-08-22T01:53:26.028Z,5.38
2022-08-22T01:56:50.942Z,6.05
2022-08-22T02:00:19.820Z,5.32
2022-08-22T02:04:04.760Z,5.25
2022-08-22T02:07:40.783Z,5.65
2022-08-22T02:11:07.265Z,4.88
2022-08-22T02:14:41.655Z,4.80
2022-08-22T02:18:18.881Z,5.97
2022-08-22T02:21:47.149Z,5.43
2022-08-22T02:25:16.636Z,5.47
2022-08-22T02:28:57.086Z,5.13
2022-08-22T02:32:23.862Z,5.78
2022-08-22T02:35:53.390Z,5.20
2022-08-22T02:39:27.010Z,4.82
2022-08-22T02:43:01.347Z,5.00
2022-08-22T02:46:29.575Z,6.13
2022-08-22T02:50:01.245Z,6.07
2022-08-22T02:53:30.320Z,5.20
2022-08-22T02:56:59.001Z,5.90
2022-08-22T03:00:32.542Z,5.47
2022-08-22T03:04:21.661Z,6.18
2022-08-22T03:11:19.493Z,5.28
2022-08-22T03:14:48.626Z,5.22
2022-08-22T03:18:21.536Z,6.28
2022-08-22T03:21:49.210Z,5.05
2022-08-22T03:25:19.821Z,5.87
2022-08-22T03:28:59.176Z,6.38
2022-08-22T03:32:24.449Z,7.03
2022-08-22T03:36:03.541Z,6.60
2022-08-22T03:39:48.875Z,7.38
2022-08-22T03:43:50.982Z,6.15
2022-08-22T03:47:54.924Z,5.93
2022-08-22T03:51:35.308Z,5.90
2022-08-22T03:55:24.104Z,6.45
2022-08-22T03:59:10.230Z,8.13
2022-08-22T04:03:08.005Z,6.85
2022-08-22T04:07:31.653Z,6.32
2022-08-22T04:11:16.662Z,5.72
2022-08-22T04:15:00.663Z,5.97
2022-08-22T04:18:50.081Z,5.68
2022-08-22T04:22:34.397Z,6.50
2022-08-22T04:26:00.735Z,7.47
2022-08-22T04:29:35.149Z,6.05
2022-08-22T04:33:03.182Z,6.47
2022-08-22T04:36:29.646Z,6.72
2022-08-22T04:39:58.650Z,7.07
2022-08-22T04:46:54.071Z,6.50
2022-08-22T04:50:23.733Z,6.72
2022-08-22T04:54:03.084Z,6.82
2022-08-22T04:57:32.763Z,6.15
2022-08-22T05:01:00.638Z,6.38
2022-08-22T05:04:27.672Z,6.85
2022-08-22T05:07:53.999Z,6.35
2022-08-22T05:11:20.953Z,6.85
2022-08-22T05:14:48.428Z,7.07
2022-08-22T05:18:15.272Z,6.05
2022-08-22T05:21:41.751Z,5.95
2022-08-22T05:25:11.098Z,6.75
2022-08-22T05:28:37.456Z,7.43
2022-08-22T05:32:04.910Z,6.50
2022-08-22T05:35:34.967Z,6.72
2022-08-22T05:39:00.868Z,6.93
2022-08-22T05:42:27.779Z,6.18
2022-08-22T05:45:50.088Z,7.00
2022-08-22T05:49:19.930Z,7.90
2022-08-22T05:53:06.316Z,7.93
2022-08-22T05:56:37.921Z,6.65
2022-08-22T06:00:06.413Z,6.88
2022-08-22T06:03:35.045Z,6.38
2022-08-22T06:07:06.342Z,6.72
2022-08-22T06:10:33.317Z,6.65
2022-08-22T06:14:01.965Z,7.10
2022-08-22T06:17:28.543Z,6.32
2022-08-22T06:20:57.319Z,6.45
2022-08-22T06:24:25.136Z,5.70
2022-08-22T06:27:50.160Z,5.40
2022-08-22T06:31:18.897Z,5.93
2022-08-22T06:34:44.224Z,6.30
2022-08-22T06:38:06.156Z,6.28
2022-08-22T06:41:34.536Z,6.65
2022-08-22T06:48:23.688Z,6.90
2022-08-22T06:51:47.912Z,7.30
2022-08-22T06:55:11.308Z,6.68
2022-08-22T06:58:39.416Z,6.22
2022-08-22T07:02:05.711Z,6.57
2022-08-22T07:05:29.359Z,7.15
2022-08-22T07:08:55.153Z,5.65
2022-08-22T07:12:20.037Z,7.10
2022-08-22T07:15:44.588Z,6.82
2022-08-22T07:19:07.721Z,6.72
2022-08-22T07:22:33.167Z,6.55
2022-08-22T07:26:00.048Z,7.13
2022-08-22T07:29:34.063Z,7.60
2022-08-22T07:33:26.034Z,6.80
2022-08-22T07:36:49.108Z,7.80
2022-08-22T07:40:23.251Z,6.70
2022-08-22T07:43:49.929Z,8.32
2022-08-22T07:47:18.003Z,7.72
2022-08-22T07:51:00.617Z,7.50
2022-08-22T07:54:27.102Z,7.50
2022-08-22T07:57:55.789Z,7.03
2022-08-22T08:04:42.630Z,7.45
2022-08-22T08:08:15.530Z,6.85
2022-08-22T08:11:42.413Z,7.20
2022-08-22T08:15:07.470Z,8.07
2022-08-22T08:18:31.560Z,8.93
2022-08-22T08:21:57.307Z,8.98
2022-08-22T08:25:23.707Z,9.45
2022-08-22T08:28:49.554Z,8.70
2022-08-22T08:32:14.035Z,8.43
2022-08-22T08:35:42.698Z,8.68
2022-08-22T08:39:35.173Z,8.88
2022-08-22T08:43:29.705Z,10.05
2022-08-22T08:47:16.719Z,10.05
2022-08-22T08:50:57.853Z,9.70
2022-08-22T08:54:44.194Z,11.75
2022-08-22T08:58:37.872Z,12.60
2022-08-22T09:02:34.916Z,13.48
2022-08-22T09:06:16.809Z,10.90
2022-08-22T09:17:38.795Z,9.60
2022-08-22T09:21:39.747Z,9.80
2022-08-22T09:25:23.519Z,9.45
2022-08-22T09:28:55.225Z,9.45
2022-08-22T09:32:23.883Z,13.00
2022-08-22T09:35:55.367Z,11.30
2022-08-22T09:39:25.346Z,11.27
2022-08-22T09:40:15.454Z,9.00
2022-08-22T09:43:02.705Z,12.70
2022-08-22T09:46:36.626Z,11.80
2022-08-22T09:50:13.859Z,12.70
2022-08-22T09:54:02.497Z,12.05
2022-08-22T09:57:36.841Z,11.45
2022-08-22T10:01:03.007Z,11.85
2022-08-22T10:04:53.856Z,12.27
2022-08-22T10:08:38.296Z,14.00
2022-08-22T10:12:04.800Z,13.10
2022-08-22T10:15:41.618Z,15.05
2022-08-22T10:19:14.039Z,12.68
2022-08-22T10:22:47.524Z,9.93
2022-08-22T10:26:22.812Z,6.22
2022-08-22T10:30:02.185Z,5.82
2022-08-22T10:33:33.632Z,6.45
2022-08-22T10:37:10.317Z,5.75
2022-08-22T10:40:39.021Z,9.63
2022-08-22T10:44:11.516Z,5.72
2022-08-22T10:47:39.620Z,4.38
2022-08-22T10:51:24.946Z,4.68
2022-08-22T10:54:54.103Z,5.03
2022-08-22T10:58:24.776Z,4.43
2022-08-22T11:01:57.141Z,5.00
2022-08-22T11:05:31.274Z,4.32
2022-08-22T11:09:16.843Z,7.65
2022-08-22T11:12:45.734Z,4.65
2022-08-22T11:16:28.772Z,4.70
2022-08-22T11:20:05.353Z,4.03
2022-08-22T11:23:41.851Z,4.10
2022-08-22T11:27:14.696Z,4.85
2022-08-22T11:30:52.285Z,4.03
2022-08-22T11:34:29.251Z,3.70
2022-08-22T11:38:01.354Z,3.90
2022-08-22T11:41:29.231Z,4.28
2022-08-22T11:44:55.646Z,4.13
2022-08-22T11:48:25.126Z,3.30
2022-08-22T11:52:11.569Z,3.80
2022-08-22T11:55:38.562Z,4.10
2022-08-22T11:59:06.516Z,3.45
2022-08-22T12:06:02.629Z,3.05
2022-08-22T12:09:42.274Z,2.80
2022-08-22T12:13:10.036Z,2.90
2022-08-22T12:16:45.149Z,2.95
2022-08-22T12:20:18.981Z,2.35
2022-08-22T12:24:11.240Z,2.50
2022-08-22T12:27:56.908Z,2.67
2022-08-22T12:31:35.197Z,2.72
2022-08-22T12:35:16.312Z,2.95
2022-08-22T12:38:55.971Z,2.47
2022-08-22T12:42:40.122Z,3.10
2022-08-22T12:46:17.410Z,2.70
2022-08-22T12:50:05.001Z,2.58
2022-08-22T12:53:50.978Z,2.03
2022-08-22T12:57:24.616Z,2.33
2022-08-22T13:00:49.505Z,2.30
2022-08-22T13:04:32.555Z,2.30
2022-08-22T13:08:02.360Z,1.83
2022-08-22T13:11:26.929Z,2.42
2022-08-22T13:14:56.210Z,1.90
2022-08-22T13:18:30.254Z,2.60
2022-08-22T13:21:59.820Z,2.10
2022-08-22T13:25:26.584Z,1.90
2022-08-22T13:29:04.306Z,2.00
2022-08-22T13:32:39.567Z,1.70
2022-08-22T13:36:10.917Z,1.90
2022-08-22T13:39:36.970Z,2.40
2022-08-22T13:43:09.377Z,5.75
2022-08-22T13:46:35.465Z,4.07
2022-08-22T13:50:08.849Z,2.72
2022-08-22T13:53:41.580Z,3.53
2022-08-22T13:57:13.245Z,3.03
2022-08-22T14:01:25.616Z,3.75
2022-08-22T14:04:54.419Z,3.03
2022-08-22T14:08:22.100Z,2.47
2022-08-22T14:11:51.247Z,3.10
2022-08-22T14:15:21.108Z,3.78
2022-08-22T14:18:49.162Z,3.03
2022-08-22T14:25:39.227Z,2.22
2022-08-22T14:29:06.323Z,2.70
2022-08-22T14:32:48.360Z,2.33
2022-08-22T14:36:18.600Z,2.58
2022-08-22T14:39:46.875Z,3.50
2022-08-22T14:43:22.544Z,2.13
2022-08-22T14:46:52.469Z,2.25
2022-08-22T14:50:44.572Z,2.55
2022-08-22T14:54:13.853Z,2.40
2022-08-22T14:57:42.552Z,2.70
2022-08-22T15:01:11.549Z,2.65
2022-08-22T15:04:38.177Z,2.33
2022-08-22T15:08:01.975Z,3.08
2022-08-22T15:11:31.823Z,2.85
2022-08-22T15:14:57.476Z,2.42
2022-08-22T15:18:33.881Z,2.35
2022-08-22T15:22:13.697Z,3.03
2022-08-22T15:25:41.421Z,3.15
2022-08-22T15:29:09.234Z,3.13
2022-08-22T15:32:36.387Z,3.07
2022-08-22T15:36:15.696Z,2.63
2022-08-22T15:39:58.539Z,3.70
2022-08-22T15:43:28.914Z,2.75
2022-08-22T15:47:06.255Z,3.10
2022-08-22T15:50:38.352Z,3.42
2022-08-22T15:54:16.060Z,2.90
2022-08-22T15:58:04.725Z,3.60
2022-08-22T16:01:30.231Z,3.30
2022-08-22T16:05:03.994Z,2.97
2022-08-22T16:08:32.711Z,3.03
2022-08-22T16:11:57.877Z,9.77
2022-08-22T16:15:57.136Z,10.90
2022-08-22T16:19:24.165Z,4.70
2022-08-22T16:23:08.991Z,5.20
2022-08-22T16:26:41.184Z,3.63
2022-08-22T16:30:17.930Z,4.50
2022-08-22T16:33:43.633Z,9.55
2022-08-22T16:37:36.069Z,5.22
2022-08-22T16:40:58.634Z,4.40
2022-08-22T16:44:43.420Z,4.00
2022-08-22T16:48:18.153Z,4.47
2022-08-22T16:52:27.764Z,9.02
2022-08-22T16:56:10.236Z,20.48
2022-08-22T16:59:50.787Z,7.15
2022-08-22T17:03:21.898Z,4.55
2022-08-22T17:06:57.393Z,4.88
2022-08-22T17:10:32.593Z,4.75
2022-08-22T17:14:17.676Z,4.47
2022-08-22T17:17:57.223Z,4.18
2022-08-22T17:21:27.381Z,4.93
2022-08-22T17:25:04.531Z,4.60
2022-08-22T17:28:41.004Z,6.32
2022-08-22T17:32:16.508Z,8.25
2022-08-22T17:35:50.364Z,7.55
2022-08-22T17:39:24.038Z,5.68
2022-08-22T17:42:59.755Z,5.18
2022-08-22T17:46:34.908Z,5.43
2022-08-22T17:50:04.511Z,5.72
2022-08-22T17:53:37.525Z,5.40
2022-08-22T17:57:05.697Z,6.10
2022-08-22T18:00:32.641Z,5.93
2022-08-22T18:04:00.706Z,6.10
2022-08-22T18:07:57.830Z,5.60
2022-08-22T18:11:26.825Z,4.93
2022-08-22T18:14:55.180Z,4.97
2022-08-22T18:18:30.344Z,5.68
2022-08-22T18:21:57.470Z,5.03
2022-08-22T18:25:37.978Z,5.10
2022-08-22T18:29:17.537Z,4.03
2022-08-22T18:32:47.263Z,4.53
2022-08-22T18:36:15.696Z,5.15
2022-08-22T18:39:50.332Z,5.45
2022-08-22T18:43:24.142Z,4.90
2022-08-22T18:46:51.608Z,5.28
2022-08-22T18:50:31.929Z,4.43
2022-08-22T18:53:56.313Z,4.88
2022-08-22T18:57:40.317Z,5.65
2022-08-22T19:01:18.399Z,5.18
2022-08-22T19:04:56.433Z,5.60
2022-08-22T19:08:44.300Z,4.78
2022-08-22T19:12:20.714Z,5.03
2022-08-22T19:15:56.125Z,5.00
2022-08-22T19:19:23.157Z,4.50
2022-08-22T19:22:45.528Z,4.85
2022-08-22T19:26:25.891Z,5.90
2022-08-22T19:29:57.956Z,4.95
2022-08-22T19:33:27.663Z,9.43
2022-08-22T19:37:32.928Z,9.88
2022-08-22T19:40:58.346Z,5.85
2022-08-22T19:44:40.673Z,5.95
2022-08-22T19:48:14.244Z,5.68
2022-08-22T19:51:36.776Z,5.13
2022-08-22T19:55:22.756Z,4.70
2022-08-22T19:58:56.105Z,5.72
2022-08-22T20:02:35.338Z,12.45
2022-08-22T20:06:05.923Z,13.18
2022-08-22T20:09:42.372Z,14.13
2022-08-22T20:13:12.058Z,13.23
2022-08-22T20:17:03.193Z,12.75
2022-08-22T20:20:36.106Z,10.40
2022-08-22T20:23:58.334Z,9.00
2022-08-22T20:27:24.753Z,9.50
2022-08-22T20:30:51.072Z,8.68
2022-08-22T20:34:17.797Z,8.45
2022-08-22T20:38:05.830Z,8.15
2022-08-22T20:41:28.982Z,7.68
2022-08-22T20:44:55.126Z,6.90
2022-08-22T20:48:18.736Z,7.35
2022-08-22T20:51:52.259Z,6.55
2022-08-22T20:55:17.596Z,9.38
2022-08-22T20:58:47.132Z,9.18
2022-08-22T21:02:16.372Z,9.65
2022-08-22T21:05:42.473Z,8.73
2022-08-22T21:09:31.012Z,10.65
2022-08-22T21:16:31.949Z,13.40
2022-08-22T21:19:54.346Z,14.90
2022-08-22T21:23:21.475Z,14.82
2022-08-22T21:26:50.636Z,18.08
2022-08-22T21:30:21.967Z,18.55
2022-08-22T21:33:48.307Z,18.40
2022-08-22T21:37:15.349Z,13.43
2022-08-22T21:40:39.903Z,11.80
2022-08-22T21:44:20.602Z,11.90
2022-08-22T21:47:43.954Z,12.98
2022-08-22T21:51:29.549Z,10.68
2022-08-22T21:54:51.527Z,10.50
2022-08-22T21:58:36.614Z,10.00
2022-08-22T22:02:29.798Z,9.32
2022-08-22T22:05:55.015Z,9.23
2022-08-22T22:09:16.869Z,9.38
2022-08-22T22:12:41.096Z,8.77
2022-08-22T22:16:04.808Z,9.05
2022-08-22T22:19:26.962Z,8.90
2022-08-22T22:22:49.124Z,8.45
2022-08-22T22:26:11.621Z,8.82
2022-08-22T22:29:34.459Z,9.07
2022-08-22T22:32:57.719Z,9.60
2022-08-22T22:36:24.909Z,10.50
2022-08-22T22:39:46.765Z,9.40
2022-08-22T22:43:08.752Z,8.10
2022-08-22T22:46:31.073Z,8.10
2022-08-22T22:49:55.763Z,6.95
2022-08-22T22:53:38.443Z,5.90
2022-08-22T22:57:01.146Z,6.35
2022-08-22T23:00:23.107Z,6.15
2022-08-22T23:03:55.300Z,6.50
2022-08-22T23:07:19.646Z,6.30
2022-08-22T23:10:41.837Z,6.68
2022-08-22T23:14:03.793Z,7.80
2022-08-22T23:17:25.690Z,6.82
2022-08-22T23:20:47.615Z,6.47
2022-08-22T23:24:11.632Z,6.38
2022-08-22T23:27:34.064Z,6.93
2022-08-22T23:30:56.015Z,6.05
2022-08-22T23:34:22.928Z,6.57
2022-08-22T23:37:45.168Z,6.03
2022-08-22T23:41:12.052Z,6.45
2022-08-22T23:44:36.189Z,6.07
2022-08-22T23:47:57.828Z,6.47
2022-08-22T23:51:23.229Z,5.75
2022-08-22T23:54:45.407Z,5.40
2022-08-22T23:58:08.897Z,5.60
